createdAt,value
2017-05-02T00:00:46.904Z,10.67
2017-05-02T00:03:14.912Z,8.30
2017-05-02T00:05:43.312Z,8.27
2017-05-02T00:08:10.965Z,9.70
2017-05-02T00:10:38.969Z,9.87
2017-05-02T00:13:06.608Z,10.10
2017-05-02T00:15:34.241Z,9.75
2017-05-02T00:18:02.180Z,10.20
2017-05-02T00:20:29.813Z,10.52
2017-05-02T00:22:57.449Z,10.55
2017-05-02T00:25:25.372Z,10.23
2017-05-02T00:27:53.772Z,10.50
2017-05-02T00:30:21.404Z,9.55
2017-05-02T00:32:49.349Z,9.25
2017-05-02T00:35:16.985Z,10.30
2017-05-02T00:37:45.393Z,10.78
2017-05-02T00:40:14.168Z,10.27
2017-05-02T00:42:42.583Z,11.18
2017-05-02T00:45:10.221Z,12.17
2017-05-02T00:47:39.074Z,10.25
2017-05-02T00:50:06.713Z,10.05
2017-05-02T00:52:34.358Z,10.18
2017-05-02T00:55:02.309Z,10.45
2017-05-02T00:57:29.957Z,11.17
2017-05-02T00:59:57.600Z,11.27
2017-05-02T01:02:25.546Z,10.92
2017-05-02T01:04:53.185Z,12.50
2017-05-02T01:07:20.833Z,11.80
2017-05-02T01:09:49.620Z,11.05
2017-05-02T01:12:18.029Z,10.82
2017-05-02T01:14:46.424Z,10.08
2017-05-02T01:17:14.441Z,11.22
2017-05-02T01:19:42.857Z,11.12
2017-05-02T01:22:10.504Z,11.35
2017-05-02T01:24:38.473Z,10.23
2017-05-02T01:27:06.125Z,11.70
2017-05-02T01:29:33.769Z,11.87
2017-05-02T01:32:01.816Z,11.42
2017-05-02T01:34:29.452Z,10.67
2017-05-02T01:36:57.101Z,12.37
2017-05-02T01:39:25.078Z,11.97
2017-05-02T01:41:52.718Z,10.30
2017-05-02T01:44:20.366Z,12.23
2017-05-02T01:46:49.093Z,11.35
2017-05-02T01:49:16.745Z,11.85
2017-05-02T01:51:44.390Z,12.22
2017-05-02T01:54:12.374Z,11.92
2017-05-02T01:56:40.777Z,10.70
2017-05-02T01:59:08.420Z,12.63
2017-05-02T02:01:36.449Z,10.88
2017-05-02T02:04:04.852Z,11.98
2017-05-02T02:06:33.258Z,11.28
2017-05-02T02:09:01.225Z,11.92
2017-05-02T02:11:28.871Z,11.73
2017-05-02T02:13:57.285Z,13.00
2017-05-02T02:16:26.020Z,12.27
2017-05-02T02:18:53.660Z,12.65
2017-05-02T02:21:22.068Z,14.07
2017-05-02T02:23:50.793Z,15.48
2017-05-02T02:26:19.204Z,14.33
2017-05-02T02:28:47.621Z,15.22
2017-05-02T02:31:15.676Z,14.87
2017-05-02T02:33:43.322Z,14.65
2017-05-02T02:36:10.964Z,14.32
2017-05-02T02:38:38.916Z,12.82
2017-05-02T02:41:06.554Z,13.28
2017-05-02T02:43:34.202Z,14.08
2017-05-02T02:46:02.132Z,13.90
2017-05-02T02:48:29.780Z,15.53
2017-05-02T02:50:57.430Z,16.75
2017-05-02T02:53:25.408Z,12.60
2017-05-02T02:55:53.044Z,14.03
2017-05-02T02:58:20.687Z,13.22
2017-05-02T03:00:48.681Z,15.35
2017-05-02T03:03:16.321Z,13.52
2017-05-02T03:05:43.973Z,14.45
2017-05-02T03:08:12.254Z,13.85
2017-05-02T03:10:39.932Z,13.33
2017-05-02T03:13:07.580Z,14.90
2017-05-02T03:15:36.393Z,13.42
2017-05-02T03:18:04.032Z,14.55
2017-05-02T03:20:32.443Z,15.37
2017-05-02T03:23:01.173Z,14.35
2017-05-02T03:25:28.841Z,15.77
2017-05-02T03:27:56.484Z,13.90
2017-05-02T03:30:24.513Z,15.23
2017-05-02T03:32:52.155Z,14.58
2017-05-02T03:35:20.560Z,14.08
2017-05-02T03:37:48.577Z,14.40
2017-05-02T03:40:16.211Z,14.48
2017-05-02T03:42:43.850Z,14.53
2017-05-02T03:45:11.812Z,14.03
2017-05-02T03:47:40.233Z,13.65
2017-05-02T03:50:08.641Z,15.37
2017-05-02T03:52:36.584Z,15.32
2017-05-02T03:55:04.231Z,15.35
2017-05-02T03:57:31.871Z,17.23
2017-05-02T03:59:59.861Z,15.10
2017-05-02T04:02:28.394Z,14.07
2017-05-02T04:04:56.886Z,15.57
2017-05-02T04:07:24.837Z,14.10
2017-05-02T04:09:52.489Z,15.13
2017-05-02T04:12:20.135Z,16.23
2017-05-02T04:14:48.070Z,16.33
2017-05-02T04:17:15.720Z,16.25
2017-05-02T04:19:44.133Z,15.62
2017-05-02T04:22:12.163Z,17.92
2017-05-02T04:24:39.800Z,16.72
2017-05-02T04:27:07.530Z,16.38
2017-05-02T04:29:35.521Z,17.15
2017-05-02T04:32:03.185Z,15.75
2017-05-02T04:34:30.833Z,17.22
2017-05-02T04:36:58.973Z,17.63
2017-05-02T04:39:26.612Z,17.98
2017-05-02T04:41:54.255Z,16.88
2017-05-02T04:44:22.304Z,16.67
2017-05-02T04:46:49.985Z,16.43
2017-05-02T04:49:17.637Z,17.87
2017-05-02T04:51:45.611Z,17.13
2017-05-02T04:54:13.346Z,16.75
2017-05-02T04:56:41.769Z,17.75
2017-05-02T04:59:09.952Z,17.63
2017-05-02T05:01:37.588Z,17.60
2017-05-02T05:04:05.233Z,17.52
2017-05-02T05:06:33.164Z,17.68
2017-05-02T05:09:01.571Z,16.57
2017-05-02T05:11:29.226Z,17.57
2017-05-02T05:13:57.962Z,16.95
2017-05-02T05:16:25.600Z,17.30
2017-05-02T05:18:54.015Z,17.43
2017-05-02T05:21:22.841Z,17.22
2017-05-02T05:23:50.500Z,16.57
2017-05-02T05:26:18.144Z,16.38
2017-05-02T05:28:46.112Z,16.32
2017-05-02T05:31:15.261Z,14.88
2017-05-02T05:33:42.905Z,15.32
2017-05-02T05:36:10.878Z,17.63
2017-05-02T05:38:38.573Z,16.85
2017-05-02T05:41:06.992Z,16.70
2017-05-02T05:43:35.029Z,18.48
2017-05-02T05:46:03.469Z,17.48
2017-05-02T05:48:31.896Z,17.45
2017-05-02T05:51:01.461Z,16.43
2017-05-02T05:53:29.124Z,17.70
2017-05-02T05:55:56.776Z,16.82
2017-05-02T05:58:24.914Z,17.05
2017-05-02T06:00:52.565Z,16.73
2017-05-02T06:03:20.212Z,17.18
2017-05-02T06:05:48.273Z,16.75
2017-05-02T06:08:15.920Z,18.17
2017-05-02T06:10:43.563Z,15.70
2017-05-02T06:13:12.353Z,17.43
2017-05-02T06:15:40.865Z,17.57
2017-05-02T06:18:08.532Z,18.77
2017-05-02T06:20:36.465Z,17.98
2017-05-02T06:23:04.144Z,18.37
2017-05-02T06:25:31.781Z,17.10
2017-05-02T06:27:59.747Z,17.93
2017-05-02T06:30:27.403Z,17.55
2017-05-02T06:32:55.074Z,18.33
2017-05-02T06:35:23.108Z,18.88
2017-05-02T06:37:50.756Z,18.32
2017-05-02T06:40:18.417Z,17.73
2017-05-02T06:42:47.160Z,18.82
2017-05-02T06:45:14.816Z,17.75
2017-05-02T06:47:42.460Z,18.25
2017-05-02T06:50:11.236Z,17.48
2017-05-02T06:52:40.398Z,19.05
2017-05-02T06:55:08.825Z,20.33
2017-05-02T06:57:37.529Z,19.35
2017-05-02T07:00:05.176Z,22.05
2017-05-02T07:02:32.819Z,22.98
2017-05-02T07:05:00.796Z,23.20
2017-05-02T07:07:28.446Z,24.25
2017-05-02T07:09:56.114Z,23.48
2017-05-02T07:12:24.129Z,22.93
2017-05-02T07:14:51.781Z,30.63
2017-05-02T07:17:19.425Z,29.05
2017-05-02T07:19:47.381Z,25.17
2017-05-02T07:22:15.020Z,26.40
2017-05-02T07:24:43.438Z,25.52
2017-05-02T07:27:12.174Z,27.73
2017-05-02T07:29:39.825Z,27.08
2017-05-02T07:32:07.472Z,28.12
2017-05-02T07:34:35.511Z,29.80
2017-05-02T07:37:03.185Z,28.57
2017-05-02T07:39:30.847Z,30.80
2017-05-02T07:41:58.808Z,31.90
2017-05-02T07:44:27.469Z,30.77
2017-05-02T07:46:55.117Z,27.90
2017-05-02T07:49:23.133Z,28.07
2017-05-02T07:51:50.781Z,29.77
2017-05-02T07:54:19.189Z,30.85
2017-05-02T07:56:48.012Z,29.77
2017-05-02T07:59:15.650Z,33.17
2017-05-02T08:01:43.293Z,29.83
2017-05-02T08:04:12.001Z,32.05
2017-05-02T08:06:39.644Z,33.72
2017-05-02T08:09:07.295Z,35.25
2017-05-02T08:11:35.339Z,31.90
2017-05-02T08:14:03.049Z,30.48
2017-05-02T08:16:30.743Z,29.45
2017-05-02T08:18:58.777Z,34.17
2017-05-02T08:21:27.193Z,33.25
2017-05-02T08:23:54.862Z,32.83
2017-05-02T08:26:22.840Z,33.77
2017-05-02T08:28:50.489Z,29.67
2017-05-02T08:31:18.900Z,37.07
2017-05-02T08:33:47.633Z,36.40
2017-05-02T08:36:15.315Z,36.58
2017-05-02T08:38:42.970Z,36.15
2017-05-02T08:41:11.697Z,36.97
2017-05-02T08:43:40.179Z,35.00
2017-05-02T08:46:08.588Z,38.70
2017-05-02T08:48:36.593Z,36.53
2017-05-02T08:51:04.241Z,30.92
2017-05-02T08:53:31.901Z,34.88
2017-05-02T08:55:59.939Z,38.83
2017-05-02T08:58:27.580Z,35.90
2017-05-02T09:00:55.276Z,33.48
2017-05-02T09:03:23.278Z,35.20
2017-05-02T09:05:50.924Z,33.15
2017-05-02T09:08:18.557Z,39.85
2017-05-02T09:10:46.529Z,38.58
2017-05-02T09:13:14.182Z,35.77
2017-05-02T09:15:41.822Z,38.80
2017-05-02T09:18:09.506Z,36.18
2017-05-02T09:20:37.151Z,29.20
2017-05-02T09:23:04.861Z,32.90
2017-05-02T09:25:32.501Z,31.88
2017-05-02T09:28:00.180Z,31.58
2017-05-02T09:30:27.862Z,16.47
2017-05-02T09:32:56.577Z,14.50
2017-05-02T09:35:24.220Z,11.75
2017-05-02T09:37:51.870Z,13.47
2017-05-02T09:40:19.550Z,11.90
2017-05-02T09:42:47.216Z,10.77
2017-05-02T09:45:16.016Z,10.20
2017-05-02T09:47:43.665Z,10.82
2017-05-02T09:50:11.300Z,9.90
2017-05-02T09:52:39.754Z,13.57
2017-05-02T09:55:08.169Z,11.87
2017-05-02T09:57:36.152Z,12.13
2017-05-02T10:00:03.808Z,12.17
2017-05-02T10:02:32.225Z,12.75
2017-05-02T10:04:59.922Z,12.20
2017-05-02T10:07:28.340Z,12.05
2017-05-02T10:09:56.422Z,11.88
2017-05-02T10:12:24.092Z,11.42
2017-05-02T10:14:52.504Z,12.47
2017-05-02T10:17:20.193Z,12.32
2017-05-02T10:19:47.827Z,10.10
2017-05-02T10:22:15.464Z,10.33
2017-05-02T10:24:43.153Z,9.33
2017-05-02T10:27:11.552Z,8.35
2017-05-02T10:29:39.189Z,7.75
2017-05-02T10:32:06.869Z,6.90
2017-05-02T10:34:34.518Z,5.98
2017-05-02T10:37:02.157Z,6.67
2017-05-02T10:39:29.852Z,6.77
2017-05-02T10:41:57.488Z,6.15
2017-05-02T10:44:25.889Z,8.43
2017-05-02T10:46:53.581Z,8.88
2017-05-02T10:49:21.239Z,7.23
2017-05-02T10:51:49.647Z,6.13
2017-05-02T10:54:17.331Z,5.67
2017-05-02T10:56:44.973Z,6.40
2017-05-02T10:59:13.382Z,5.98
2017-05-02T11:01:42.058Z,5.43
2017-05-02T11:04:09.705Z,5.97
2017-05-02T11:06:37.365Z,4.43
2017-05-02T11:09:05.049Z,4.20
2017-05-02T11:11:34.205Z,3.22
2017-05-02T11:14:01.852Z,3.33
2017-05-02T11:16:29.533Z,2.45
2017-05-02T11:18:57.178Z,3.07
2017-05-02T11:21:24.824Z,3.38
2017-05-02T11:23:52.505Z,2.87
2017-05-02T11:26:20.913Z,3.15
2017-05-02T11:28:49.324Z,2.95
2017-05-02T11:31:17.880Z,2.30
2017-05-02T11:33:45.521Z,2.63
2017-05-02T11:36:13.160Z,2.00
2017-05-02T11:38:40.854Z,2.63
2017-05-02T11:41:08.506Z,1.55
2017-05-02T11:43:36.169Z,2.32
2017-05-02T11:46:04.649Z,1.95
2017-05-02T11:48:33.099Z,1.88
2017-05-02T11:51:00.732Z,1.63
2017-05-02T11:53:29.179Z,1.72
2017-05-02T11:55:56.825Z,1.52
2017-05-02T11:58:25.223Z,1.45
2017-05-02T12:00:52.989Z,1.52
2017-05-02T12:03:20.644Z,1.60
2017-05-02T12:05:48.288Z,1.78
2017-05-02T12:08:16.322Z,2.18
2017-05-02T12:10:43.965Z,2.10
2017-05-02T12:13:11.601Z,2.40
2017-05-02T12:15:39.579Z,2.38
2017-05-02T12:18:07.985Z,1.98
2017-05-02T12:20:36.386Z,2.08
2017-05-02T12:23:04.335Z,1.88
2017-05-02T12:25:32.753Z,1.43
2017-05-02T12:28:01.152Z,1.85
2017-05-02T12:30:29.100Z,1.87
2017-05-02T12:32:57.496Z,1.15
2017-05-02T12:35:25.132Z,1.30
2017-05-02T12:37:53.828Z,1.85
2017-05-02T12:40:22.224Z,1.35
2017-05-02T12:42:50.635Z,1.32
2017-05-02T12:45:18.600Z,1.20
2017-05-02T12:47:47.007Z,1.10
2017-05-02T12:50:15.413Z,1.47
2017-05-02T12:52:43.376Z,1.30
2017-05-02T12:57:39.580Z,1.62
2017-05-02T13:00:07.549Z,1.52
2017-05-02T13:02:35.950Z,2.13
2017-05-02T13:05:04.352Z,1.60
2017-05-02T13:07:32.333Z,1.37
2017-05-02T13:09:59.977Z,1.43
2017-05-02T13:12:27.618Z,1.43
2017-05-02T13:14:56.405Z,1.22
2017-05-02T13:17:24.054Z,0.80
2017-05-02T13:19:51.700Z,1.30
2017-05-02T13:22:19.661Z,1.95
2017-05-02T13:24:47.301Z,1.02
2017-05-02T13:27:16.249Z,1.17
2017-05-02T13:29:44.225Z,1.27
2017-05-02T13:32:11.866Z,1.10
2017-05-02T13:34:39.533Z,1.83
2017-05-02T13:37:07.472Z,2.85
2017-05-02T13:39:35.876Z,3.12
2017-05-02T13:42:04.310Z,2.55
2017-05-02T13:44:33.073Z,1.43
2017-05-02T13:47:01.349Z,2.88
2017-05-02T13:49:28.993Z,1.35
2017-05-02T13:51:56.948Z,1.55
2017-05-02T13:54:24.643Z,1.35
2017-05-02T13:56:52.297Z,1.33
2017-05-02T13:59:21.143Z,2.37
2017-05-02T14:01:49.568Z,1.65
2017-05-02T14:04:17.971Z,1.12
2017-05-02T14:06:45.987Z,1.60
2017-05-02T14:09:14.398Z,1.45
2017-05-02T14:11:42.795Z,1.43
2017-05-02T14:14:10.761Z,1.05
2017-05-02T14:16:38.405Z,1.80
2017-05-02T14:19:06.842Z,1.72
2017-05-02T14:21:35.525Z,1.18
2017-05-02T14:24:03.179Z,1.20
2017-05-02T14:26:30.815Z,1.93
2017-05-02T14:28:59.626Z,1.75
2017-05-02T14:31:27.264Z,1.45
2017-05-02T14:33:55.678Z,1.60
2017-05-02T14:36:24.416Z,1.87
2017-05-02T14:38:52.067Z,1.27
2017-05-02T14:41:21.218Z,1.10
2017-05-02T14:43:49.950Z,0.73
2017-05-02T14:46:18.349Z,1.88
2017-05-02T14:48:46.001Z,1.25
2017-05-02T14:51:13.956Z,1.35
2017-05-02T14:53:42.369Z,1.87
2017-05-02T14:56:10.012Z,0.93
2017-05-02T14:58:38.042Z,1.37
2017-05-02T15:01:05.710Z,1.17
2017-05-02T15:03:34.114Z,0.60
2017-05-02T15:06:02.125Z,2.25
2017-05-02T15:08:29.759Z,1.38
2017-05-02T15:10:57.472Z,0.80
2017-05-02T15:13:26.285Z,0.82
2017-05-02T15:15:53.924Z,0.70
2017-05-02T15:18:21.583Z,0.82
2017-05-02T15:20:49.616Z,1.13
2017-05-02T15:23:18.058Z,1.18
2017-05-02T15:25:46.574Z,1.02
2017-05-02T15:28:14.519Z,0.70
2017-05-02T15:30:42.170Z,1.00
2017-05-02T15:33:11.315Z,0.90
2017-05-02T15:35:39.286Z,1.53
2017-05-02T15:38:07.693Z,0.95
2017-05-02T15:40:36.106Z,1.15
2017-05-02T15:43:04.060Z,0.70
2017-05-02T15:45:32.488Z,0.70
2017-05-02T15:48:00.893Z,0.83
2017-05-02T15:50:28.854Z,1.10
2017-05-02T15:52:56.494Z,2.22
2017-05-02T15:55:24.909Z,1.20
2017-05-02T15:57:53.633Z,2.12
2017-05-02T16:00:21.281Z,1.60
2017-05-02T16:02:48.926Z,0.82
2017-05-02T16:05:16.885Z,0.80
2017-05-02T16:07:44.546Z,2.17
2017-05-02T16:10:12.195Z,1.52
2017-05-02T16:12:40.914Z,1.03
2017-05-02T16:15:09.369Z,3.95
2017-05-02T16:17:37.769Z,1.22
2017-05-02T16:20:05.718Z,2.40
2017-05-02T16:22:33.361Z,1.58
2017-05-02T16:25:01.000Z,1.35
2017-05-02T16:27:28.995Z,2.42
2017-05-02T16:29:56.633Z,1.90
2017-05-02T16:32:25.039Z,1.82
2017-05-02T16:34:53.763Z,1.17
2017-05-02T16:37:21.429Z,3.85
2017-05-02T16:39:49.076Z,1.55
2017-05-02T16:42:17.132Z,2.07
2017-05-02T16:44:45.675Z,1.08
2017-05-02T16:47:13.316Z,2.18
2017-05-02T16:49:41.822Z,1.05
2017-05-02T16:52:11.313Z,1.08
2017-05-02T16:54:39.852Z,1.15
2017-05-02T16:57:07.794Z,1.32
2017-05-02T16:59:36.201Z,1.25
2017-05-02T17:02:03.844Z,1.07
2017-05-02T17:04:31.865Z,1.52
2017-05-02T17:07:00.277Z,1.27
2017-05-02T17:09:28.706Z,0.98
2017-05-02T17:11:56.753Z,1.57
2017-05-02T17:14:24.399Z,1.52
2017-05-02T17:16:52.054Z,2.43
2017-05-02T17:19:20.830Z,2.85
2017-05-02T17:21:48.502Z,1.52
2017-05-02T17:24:16.150Z,2.27
2017-05-02T17:26:44.862Z,2.28
2017-05-02T17:29:13.308Z,2.58
2017-05-02T17:31:41.717Z,1.30
2017-05-02T17:34:09.725Z,2.27
2017-05-02T17:36:37.453Z,3.63
2017-05-02T17:39:05.110Z,3.08
2017-05-02T17:41:34.550Z,2.02
2017-05-02T17:44:02.201Z,1.55
2017-05-02T17:46:29.901Z,1.93
2017-05-02T17:48:58.618Z,1.58
2017-05-02T17:51:26.252Z,2.35
2017-05-02T17:53:53.918Z,2.43
2017-05-02T17:56:21.853Z,3.87
2017-05-02T17:58:50.307Z,1.75
2017-05-02T18:01:18.020Z,1.97
2017-05-02T18:03:46.747Z,2.22
2017-05-02T18:06:15.150Z,3.38
2017-05-02T18:08:42.793Z,1.98
2017-05-02T18:11:11.526Z,3.25
2017-05-02T18:13:39.200Z,3.28
2017-05-02T18:16:06.838Z,3.67
2017-05-02T18:18:35.552Z,2.92
2017-05-02T18:21:04.065Z,2.18
2017-05-02T18:23:31.702Z,2.82
2017-05-02T18:25:59.653Z,2.52
2017-05-02T18:28:27.324Z,1.75
2017-05-02T18:30:54.964Z,1.52
2017-05-02T18:33:22.918Z,1.62
2017-05-02T18:35:50.700Z,4.17
2017-05-02T18:38:19.191Z,3.47
2017-05-02T18:40:48.001Z,2.77
2017-05-02T18:43:15.669Z,2.08
2017-05-02T18:45:43.329Z,2.92
2017-05-02T18:48:12.061Z,3.42
2017-05-02T18:50:39.725Z,1.82
2017-05-02T18:53:07.395Z,2.82
2017-05-02T18:55:35.414Z,3.55
2017-05-02T18:58:03.070Z,2.08
2017-05-02T19:00:30.725Z,2.93
2017-05-02T19:02:58.778Z,3.32
2017-05-02T19:05:26.433Z,2.07
2017-05-02T19:07:54.841Z,2.62
2017-05-02T19:10:22.780Z,2.00
2017-05-02T19:12:51.196Z,2.67
2017-05-02T19:15:18.830Z,2.55
2017-05-02T19:17:46.787Z,3.22
2017-05-02T19:20:14.424Z,2.83
2017-05-02T19:22:42.068Z,4.37
2017-05-02T19:25:10.769Z,3.78
2017-05-02T19:27:38.417Z,5.08
2017-05-02T19:30:06.081Z,6.52
2017-05-02T19:32:34.829Z,3.88
2017-05-02T19:35:03.242Z,5.60
2017-05-02T19:37:31.661Z,4.45
2017-05-02T19:39:59.604Z,6.57
2017-05-02T19:42:27.253Z,4.75
2017-05-02T19:44:55.694Z,4.63
2017-05-02T19:47:24.389Z,4.92
2017-05-02T19:49:52.049Z,4.60
2017-05-02T19:52:20.449Z,4.30
2017-05-02T19:54:49.181Z,9.43
2017-05-02T19:57:16.872Z,12.30
2017-05-02T19:59:44.511Z,8.77
2017-05-02T20:02:13.336Z,6.62
2017-05-02T20:04:41.032Z,5.13
2017-05-02T20:07:09.461Z,3.80
2017-05-02T20:09:37.405Z,4.57
2017-05-02T20:12:05.810Z,4.20
2017-05-02T20:14:34.216Z,4.67
2017-05-02T20:17:03.157Z,4.33
2017-05-02T20:19:31.564Z,5.58
2017-05-02T20:21:59.207Z,4.73
2017-05-02T20:24:27.166Z,4.38
2017-05-02T20:26:55.575Z,4.70
2017-05-02T20:29:23.985Z,5.52
2017-05-02T20:31:51.947Z,4.85
2017-05-02T20:34:20.354Z,4.10
2017-05-02T20:36:48.067Z,5.83
2017-05-02T20:39:16.060Z,4.63
2017-05-02T20:41:44.475Z,3.95
2017-05-02T20:44:12.102Z,4.63
2017-05-02T20:46:40.032Z,5.60
2017-05-02T20:49:08.869Z,4.85
2017-05-02T20:51:37.286Z,6.27
2017-05-02T20:54:05.309Z,5.83
2017-05-02T20:56:33.820Z,7.18
2017-05-02T20:59:01.457Z,9.00
2017-05-02T21:01:29.446Z,6.33
2017-05-02T21:03:57.853Z,7.08
2017-05-02T21:06:26.253Z,7.10
2017-05-02T21:08:54.234Z,6.00
2017-05-02T21:11:21.875Z,6.07
2017-05-02T21:13:50.272Z,6.43
2017-05-02T21:16:18.237Z,7.93
2017-05-02T21:18:45.872Z,5.17
2017-05-02T21:21:13.533Z,6.03
2017-05-02T21:23:41.650Z,6.08
2017-05-02T21:26:09.293Z,5.30
2017-05-02T21:28:36.928Z,5.08
2017-05-02T21:31:04.925Z,5.67
2017-05-02T21:33:32.655Z,5.45
2017-05-02T21:36:00.292Z,6.23
2017-05-02T21:38:28.349Z,6.72
2017-05-02T21:40:55.989Z,7.90
2017-05-02T21:43:23.658Z,4.83
2017-05-02T21:45:51.578Z,5.72
2017-05-02T21:48:19.221Z,6.95
2017-05-02T21:50:46.893Z,6.13
2017-05-02T21:53:14.845Z,5.15
2017-05-02T21:55:43.269Z,5.52
2017-05-02T21:58:11.237Z,5.72
2017-05-02T22:00:39.172Z,4.65
2017-05-02T22:03:06.852Z,5.53
2017-05-02T22:05:34.515Z,5.70
2017-05-02T22:08:03.388Z,4.22
2017-05-02T22:10:31.782Z,5.82
2017-05-02T22:13:00.190Z,6.38
2017-05-02T22:15:28.153Z,6.30
2017-05-02T22:17:55.796Z,4.28
2017-05-02T22:20:23.450Z,5.08
2017-05-02T22:22:51.518Z,4.57
2017-05-02T22:25:20.010Z,6.20
2017-05-02T22:27:49.202Z,5.65
2017-05-02T22:30:18.027Z,5.27
2017-05-02T22:32:45.661Z,6.13
2017-05-02T22:35:13.310Z,4.95
2017-05-02T22:37:41.297Z,5.70
2017-05-02T22:40:08.928Z,5.88
2017-05-02T22:42:36.560Z,6.25
2017-05-02T22:45:04.533Z,5.40
2017-05-02T22:47:32.178Z,7.08
2017-05-02T22:49:59.829Z,6.58
2017-05-02T22:52:27.801Z,6.05
2017-05-02T22:54:56.216Z,5.33
2017-05-02T22:57:23.859Z,5.95
2017-05-02T22:59:52.655Z,5.90
2017-05-02T23:02:21.808Z,5.55
2017-05-02T23:04:50.220Z,6.18
2017-05-02T23:07:18.171Z,5.72
2017-05-02T23:09:46.583Z,5.30
2017-05-02T23:12:14.230Z,6.00
2017-05-02T23:14:42.224Z,6.05
2017-05-02T23:17:10.647Z,5.93
2017-05-02T23:19:39.053Z,4.82
2017-05-02T23:22:07.827Z,5.77
2017-05-02T23:24:35.476Z,5.40
2017-05-02T23:27:03.157Z,6.08
2017-05-02T23:29:31.893Z,5.40
2017-05-02T23:32:00.335Z,5.62
2017-05-02T23:34:27.981Z,5.37
2017-05-02T23:36:55.926Z,4.65
2017-05-02T23:39:23.581Z,5.23
2017-05-02T23:41:51.982Z,4.32
2017-05-02T23:44:21.446Z,4.68
2017-05-02T23:46:49.090Z,5.90
2017-05-02T23:49:16.741Z,4.18
2017-05-02T23:51:45.439Z,4.93
2017-05-02T23:54:13.844Z,5.48
2017-05-02T23:56:41.487Z,5.05
2017-05-02T23:59:10.173Z,4.73
